Time;durP1;ratioP1;P1;durP2;ratioP2;P2;SDS_P1;SDS_P2;PMS_P1;PMS_P2;Temp;Humidity;BMP_temperature;BMP_pressure;BME280_temperature;BME280_humidity;BME280_pressure;Samples;Min_cycle;Max_cycle;Signal;HPM_P1;HPM_P2
2022/04/14 00:01:36;;;;;;;3.97;3.67;;;3.60;99.90;;;;;;5084942;27;20570;-64
2022/04/14 00:04:15;;;;;;;4.85;4.45;;;3.60;99.90;;;;;;5079725;27;20601;-64
2022/04/14 00:06:55;;;;;;;3.90;3.65;;;3.50;99.90;;;;;;5080344;27;20628;-64
2022/04/14 00:09:36;;;;;;;4.07;3.78;;;3.40;99.90;;;;;;5081892;28;20555;-64
2022/04/14 00:12:17;;;;;;;4.10;3.80;;;3.30;99.90;;;;;;5083252;27;20600;-64
2022/04/14 00:14:57;;;;;;;4.20;3.90;;;3.30;99.90;;;;;;5103642;27;20580;-64
2022/04/14 00:17:36;;;;;;;4.18;3.88;;;3.20;99.90;;;;;;5084735;27;20543;-65
2022/04/14 00:20:16;;;;;;;5.40;4.65;;;3.10;99.90;;;;;;5096919;27;20948;-64
2022/04/14 00:22:56;;;;;;;4.97;3.88;;;3.10;99.90;;;;;;5083607;27;20569;-64
2022/04/14 00:25:36;;;;;;;4.47;4.18;;;3.10;99.90;;;;;;5135550;27;20550;-64
2022/04/14 00:28:15;;;;;;;4.53;4.20;;;3.10;99.90;;;;;;5084012;27;20577;-65
2022/04/14 00:30:55;;;;;;;5.00;4.60;;;3.20;99.90;;;;;;5082742;27;20983;-65
2022/04/14 00:33:35;;;;;;;5.78;5.30;;;3.10;99.90;;;;;;5083943;27;20539;-64
2022/04/14 00:36:15;;;;;;;5.43;4.90;;;3.10;99.90;;;;;;5062017;27;20879;-64
2022/04/14 00:38:55;;;;;;;5.78;5.30;;;3.00;99.90;;;;;;5122659;27;20552;-65
2022/04/14 00:41:35;;;;;;;4.53;4.20;;;3.00;99.90;;;;;;5084998;27;20909;-64
2022/04/14 00:44:14;;;;;;;4.80;4.50;;;3.00;99.90;;;;;;5100171;27;20684;-64
2022/04/14 00:46:54;;;;;;;4.85;4.55;;;3.00;99.90;;;;;;5105395;27;21132;-64
2022/04/14 00:49:35;;;;;;;4.78;4.35;;;3.00;99.90;;;;;;5083728;27;21021;-66
2022/04/14 00:52:16;;;;;;;4.75;4.35;;;2.90;99.90;;;;;;5106206;27;20562;-64
2022/04/14 00:54:55;;;;;;;4.68;4.32;;;2.90;99.90;;;;;;5084347;27;21165;-64
2022/04/14 00:57:35;;;;;;;4.75;4.18;;;2.90;99.90;;;;;;5145690;27;20560;-65
2022/04/14 01:00:15;;;;;;;3.85;3.63;;;2.90;99.90;;;;;;5084084;27;20569;-64
2022/04/14 01:02:55;;;;;;;7.13;5.30;;;2.90;99.90;;;;;;5104776;27;20541;-65
2022/04/14 01:05:35;;;;;;;3.75;3.45;;;2.80;99.90;;;;;;5105042;27;20619;-64
2022/04/14 01:08:17;;;;;;;3.65;3.45;;;2.80;99.90;;;;;;5084185;27;21145;-64
2022/04/14 01:10:58;;;;;;;3.85;3.38;;;2.70;99.90;;;;;;5084112;27;21000;-64
2022/04/14 01:13:37;;;;;;;4.05;3.70;;;2.70;99.90;;;;;;5104952;27;20614;-65
2022/04/14 01:16:17;;;;;;;3.95;3.60;;;2.50;99.90;;;;;;5080273;27;20581;-64
2022/04/14 01:19:00;;;;;;;3.95;3.75;;;2.50;99.90;;;;;;5082947;27;20581;-65
2022/04/14 01:21:45;;;;;;;4.72;4.32;;;2.50;99.90;;;;;;5084543;27;20569;-63
2022/04/14 01:24:25;;;;;;;4.30;4.07;;;2.50;99.90;;;;;;5078566;27;20552;-64
2022/04/14 01:27:05;;;;;;;5.40;4.97;;;2.40;99.90;;;;;;5083980;27;20980;-64
2022/04/14 01:29:46;;;;;;;4.50;3.80;;;2.40;99.90;;;;;;5074811;27;20575;-64
2022/04/14 01:32:26;;;;;;;5.22;4.60;;;2.50;99.90;;;;;;5079831;27;20589;-64
2022/04/14 01:35:07;;;;;;;5.30;4.82;;;2.50;99.90;;;;;;5082723;27;21185;-64
2022/04/14 01:37:47;;;;;;;5.00;4.53;;;2.60;99.90;;;;;;5103754;27;20571;-64
2022/04/14 01:40:28;;;;;;;5.20;4.65;;;2.60;99.90;;;;;;5083827;27;20577;-64
2022/04/14 01:43:08;;;;;;;5.45;5.05;;;2.60;99.90;;;;;;5096136;27;20580;-64
2022/04/14 01:45:50;;;;;;;4.63;4.32;;;2.60;99.90;;;;;;5081823;27;20577;-64
2022/04/14 01:48:30;;;;;;;4.60;4.20;;;2.50;99.90;;;;;;5076832;27;21315;-64
2022/04/14 01:51:09;;;;;;;4.35;3.97;;;2.50;99.90;;;;;;5099081;27;21048;-64
2022/04/14 01:53:49;;;;;;;4.93;4.35;;;2.50;99.90;;;;;;5081882;27;20570;-64
2022/04/14 01:56:29;;;;;;;4.32;4.03;;;2.50;99.90;;;;;;5101923;27;20557;-64
2022/04/14 01:59:09;;;;;;;4.60;4.30;;;2.50;99.90;;;;;;5073706;27;20613;-64
2022/04/14 02:01:49;;;;;;;5.05;4.65;;;2.50;99.90;;;;;;5083733;27;20999;-63
2022/04/14 02:04:28;;;;;;;5.15;4.80;;;2.40;99.90;;;;;;5104790;27;20598;-61
2022/04/14 02:07:09;;;;;;;4.45;4.15;;;2.40;99.90;;;;;;5083920;27;20574;-63
2022/04/14 02:09:50;;;;;;;4.35;3.58;;;2.40;99.90;;;;;;5083869;27;20966;-64
2022/04/14 02:12:30;;;;;;;3.67;3.38;;;2.40;99.90;;;;;;5112898;27;20564;-64
2022/04/14 02:15:10;;;;;;;3.58;3.33;;;2.40;99.90;;;;;;5098528;27;20555;-65
2022/04/14 02:17:49;;;;;;;4.40;4.10;;;2.40;99.90;;;;;;5084677;27;20561;-64
2022/04/14 02:20:29;;;;;;;4.45;4.15;;;2.30;99.90;;;;;;5084009;27;20535;-64
2022/04/14 02:23:09;;;;;;;3.85;3.55;;;2.20;99.90;;;;;;5104761;27;20977;-64
2022/04/14 02:25:49;;;;;;;4.32;4.03;;;2.20;99.90;;;;;;5084851;27;20589;-64
2022/04/14 02:28:28;;;;;;;4.75;4.45;;;2.30;99.90;;;;;;5095431;27;20584;-64
2022/04/14 02:31:08;;;;;;;3.80;3.50;;;2.40;99.90;;;;;;5099622;27;20579;-64
2022/04/14 02:33:49;;;;;;;5.82;3.55;;;2.40;99.90;;;;;;5123941;27;20573;-64
2022/04/14 02:36:28;;;;;;;4.47;3.95;;;2.40;99.90;;;;;;5083968;28;20748;-64
2022/04/14 02:39:09;;;;;;;4.28;3.78;;;2.50;99.90;;;;;;5104288;27;21136;-64
2022/04/14 02:41:49;;;;;;;4.32;3.90;;;2.50;99.90;;;;;;5085112;27;20569;-64
2022/04/14 02:44:29;;;;;;;4.82;3.67;;;2.50;99.90;;;;;;5080198;27;20644;-63
2022/04/14 02:47:09;;;;;;;3.97;3.63;;;2.50;99.90;;;;;;5071902;27;20579;-64
2022/04/14 02:49:49;;;;;;;6.25;3.72;;;2.50;99.90;;;;;;5082457;27;20574;-65
2022/04/14 02:52:28;;;;;;;3.58;3.38;;;2.60;99.90;;;;;;5134459;27;20698;-64
2022/04/14 02:55:09;;;;;;;3.40;3.10;;;2.60;99.90;;;;;;5083877;27;20589;-63
2022/04/14 02:57:48;;;;;;;3.10;2.90;;;2.60;99.90;;;;;;5084267;28;21193;-64
2022/04/14 03:00:28;;;;;;;3.63;3.33;;;2.50;99.90;;;;;;5075059;27;20580;-64
2022/04/14 03:03:08;;;;;;;3.88;3.60;;;2.40;99.90;;;;;;5082743;27;20564;-64
2022/04/14 03:05:47;;;;;;;4.25;3.85;;;2.30;99.90;;;;;;5083573;27;20559;-64
2022/04/14 03:08:27;;;;;;;3.22;3.03;;;2.30;99.90;;;;;;5104144;27;20585;-64
2022/04/14 03:11:07;;;;;;;3.40;3.20;;;2.30;99.90;;;;;;5082385;28;21133;-64
2022/04/14 03:13:47;;;;;;;3.20;3.00;;;2.30;99.90;;;;;;5108426;27;20550;-64
2022/04/14 03:16:27;;;;;;;4.05;3.67;;;2.20;99.90;;;;;;5082056;27;20555;-64
2022/04/14 03:19:07;;;;;;;3.67;3.38;;;2.10;99.90;;;;;;5102505;27;20570;-64
2022/04/14 03:21:48;;;;;;;3.88;3.58;;;2.10;99.90;;;;;;5104514;27;20690;-64
2022/04/14 03:24:26;;;;;;;3.95;3.60;;;2.10;99.90;;;;;;5097602;27;20588;-65
2022/04/14 03:27:06;;;;;;;3.30;3.00;;;2.00;99.90;;;;;;5104425;27;21145;-64
2022/04/14 03:29:46;;;;;;;4.45;3.92;;;2.00;99.90;;;;;;5083759;27;20570;-64
2022/04/14 03:32:26;;;;;;;3.08;2.80;;;1.90;99.90;;;;;;5084294;27;20574;-65
2022/04/14 03:35:07;;;;;;;3.63;3.40;;;2.00;99.90;;;;;;5077869;27;20593;-65
2022/04/14 03:37:49;;;;;;;2.80;2.60;;;2.00;99.90;;;;;;5081681;27;20585;-64
2022/04/14 03:40:28;;;;;;;3.17;2.97;;;2.00;99.90;;;;;;5070916;27;20594;-65
2022/04/14 03:43:08;;;;;;;3.70;3.05;;;1.90;99.90;;;;;;5081603;28;20664;-64
2022/04/14 03:45:48;;;;;;;4.20;3.03;;;1.80;99.90;;;;;;5143710;27;20546;-64
2022/04/14 03:48:28;;;;;;;4.40;4.03;;;1.70;99.90;;;;;;5101330;27;20588;-64
2022/04/14 03:51:08;;;;;;;3.33;3.13;;;1.60;99.90;;;;;;5081899;27;20561;-64
2022/04/14 03:53:48;;;;;;;3.58;3.35;;;1.50;99.90;;;;;;5112868;27;20900;-64
2022/04/14 03:56:27;;;;;;;3.60;3.30;;;1.50;99.90;;;;;;5139909;27;20568;-64
2022/04/14 03:59:07;;;;;;;4.03;3.72;;;1.40;99.90;;;;;;5102978;27;20573;-66
2022/04/14 04:01:47;;;;;;;4.20;3.90;;;1.40;99.90;;;;;;5083128;27;20577;-65
2022/04/14 04:04:27;;;;;;;4.72;4.43;;;1.40;99.90;;;;;;5084146;27;20584;-64
2022/04/14 04:07:07;;;;;;;4.45;4.05;;;1.30;99.90;;;;;;5104505;27;21040;-65
2022/04/14 04:09:47;;;;;;;3.88;3.58;;;1.20;99.90;;;;;;5145488;27;20534;-64
2022/04/14 04:12:26;;;;;;;3.80;3.50;;;1.10;99.90;;;;;;5125776;27;21121;-65
2022/04/14 04:15:07;;;;;;;4.28;3.88;;;1.00;99.90;;;;;;5083853;27;20580;-64
2022/04/14 04:17:51;;;;;;;5.10;4.47;;;1.10;99.90;;;;;;5084830;28;21068;-64
2022/04/14 04:20:31;;;;;;;5.13;4.72;;;1.10;99.90;;;;;;5083722;28;21003;-64
2022/04/14 04:23:10;;;;;;;3.95;3.70;;;1.20;99.90;;;;;;5084637;27;20983;-64
2022/04/14 04:25:51;;;;;;;3.85;3.42;;;1.20;99.90;;;;;;5084763;27;20572;-65
2022/04/14 04:28:31;;;;;;;3.83;3.55;;;1.30;99.90;;;;;;5104736;27;20793;-64
2022/04/14 04:31:10;;;;;;;3.67;3.38;;;1.30;99.90;;;;;;5084152;27;20573;-64
2022/04/14 04:33:51;;;;;;;3.22;2.92;;;1.30;99.90;;;;;;5082697;28;21034;-64
2022/04/14 04:36:30;;;;;;;4.45;4.15;;;1.40;99.90;;;;;;5085221;27;20992;-64
2022/04/14 04:39:09;;;;;;;4.30;3.90;;;1.60;99.90;;;;;;5083680;28;20556;-64
2022/04/14 04:41:49;;;;;;;4.55;4.07;;;1.90;99.90;;;;;;5146193;27;21035;-64
2022/04/14 04:44:29;;;;;;;5.38;4.97;;;2.20;99.90;;;;;;5084077;27;20597;-64
2022/04/14 04:47:09;;;;;;;4.38;4.07;;;2.50;99.90;;;;;;5097393;27;21044;-64
2022/04/14 04:49:49;;;;;;;4.50;4.20;;;2.70;99.90;;;;;;5098290;27;20988;-64
2022/04/14 04:52:28;;;;;;;4.70;4.30;;;2.80;99.90;;;;;;5102463;27;20695;-64
2022/04/14 04:55:10;;;;;;;4.05;3.75;;;2.90;99.90;;;;;;5080292;28;20572;-63
2022/04/14 04:57:50;;;;;;;4.15;3.60;;;2.90;99.90;;;;;;5082557;28;20547;-64
2022/04/14 05:00:30;;;;;;;4.45;3.97;;;2.90;99.90;;;;;;5118853;27;20568;-64
2022/04/14 05:03:11;;;;;;;4.47;4.07;;;2.90;99.90;;;;;;5123002;27;20691;-65
2022/04/14 05:05:51;;;;;;;5.15;4.65;;;2.80;99.90;;;;;;5063619;28;21000;-64
2022/04/14 05:08:31;;;;;;;5.10;4.55;;;2.80;99.90;;;;;;5053658;27;20924;-65
2022/04/14 05:11:11;;;;;;;5.70;5.30;;;2.80;99.90;;;;;;5122979;27;20578;-64
2022/04/14 05:13:50;;;;;;;5.45;4.95;;;2.90;99.90;;;;;;5083617;27;20560;-63
2022/04/14 05:16:30;;;;;;;5.30;4.80;;;3.00;99.90;;;;;;5082060;27;20707;-63
2022/04/14 05:19:11;;;;;;;7.93;5.70;;;3.20;99.90;;;;;;5102229;27;20542;-63
2022/04/14 05:21:51;;;;;;;8.02;7.22;;;3.50;99.90;;;;;;5083169;27;20581;-64
2022/04/14 05:24:32;;;;;;;6.18;5.60;;;3.80;99.90;;;;;;5085156;27;21189;-63
2022/04/14 05:27:11;;;;;;;11.43;9.60;;;4.20;99.90;;;;;;5082462;28;20601;-63
2022/04/14 05:29:51;;;;;;;8.00;7.40;;;4.50;99.90;;;;;;5102490;27;20864;-63
2022/04/14 05:32:31;;;;;;;8.60;6.20;;;4.80;99.90;;;;;;5087441;27;20557;-62
2022/04/14 05:35:11;;;;;;;6.90;6.30;;;5.20;99.90;;;;;;5090454;27;20577;-63
2022/04/14 05:37:50;;;;;;;42.83;24.92;;;5.50;99.90;;;;;;5084807;27;20535;-63
2022/04/14 05:40:30;;;;;;;59.15;34.17;;;5.90;99.90;;;;;;5073196;27;20563;-62
2022/04/14 05:43:15;;;;;;;23.55;17.70;;;6.30;99.90;;;;;;5077922;27;20562;-62
2022/04/14 05:45:55;;;;;;;8.77;8.05;;;6.80;99.90;;;;;;5079836;28;20576;-62
2022/04/14 05:48:34;;;;;;;22.67;16.50;;;7.30;99.90;;;;;;5070795;28;20682;-62
2022/04/14 05:51:14;;;;;;;23.95;19.33;;;7.70;99.90;;;;;;5102165;27;20578;-62
2022/04/14 05:53:54;;;;;;;17.58;15.18;;;7.90;99.90;;;;;;5076736;27;21866;-62
2022/04/14 05:56:34;;;;;;;19.60;14.95;;;8.20;99.90;;;;;;5081172;27;20588;-62
2022/04/14 05:59:16;;;;;;;15.40;13.93;;;8.40;99.90;;;;;;5080318;28;20962;-62
2022/04/14 06:01:55;;;;;;;21.70;15.25;;;8.50;99.90;;;;;;5081890;28;21084;-62
2022/04/14 06:04:35;;;;;;;16.27;14.65;;;8.40;99.90;;;;;;5123733;27;20548;-62
2022/04/14 06:07:15;;;;;;;18.30;15.38;;;8.40;99.90;;;;;;5103336;27;20541;-62
2022/04/14 06:09:55;;;;;;;17.60;14.45;;;8.40;99.90;;;;;;5083862;28;20560;-62
2022/04/14 06:12:35;;;;;;;17.75;15.13;;;8.50;99.90;;;;;;5125839;27;20901;-63
2022/04/14 06:15:15;;;;;;;14.90;13.60;;;8.70;99.90;;;;;;5084431;27;20563;-62
2022/04/14 06:17:56;;;;;;;16.70;13.73;;;8.70;99.90;;;;;;5084334;27;20573;-62
2022/04/14 06:20:36;;;;;;;16.50;14.68;;;8.70;99.90;;;;;;5084297;28;20687;-62
2022/04/14 06:23:17;;;;;;;15.60;14.30;;;8.80;99.90;;;;;;5148428;27;20542;-62
2022/04/14 06:25:57;;;;;;;14.30;13.10;;;9.00;99.90;;;;;;5077494;27;20615;-62
2022/04/14 06:28:37;;;;;;;16.58;13.82;;;9.30;99.90;;;;;;5066015;27;20599;-62
2022/04/14 06:31:17;;;;;;;14.65;13.20;;;9.40;99.90;;;;;;5081174;27;22568;-62
2022/04/14 06:33:56;;;;;;;14.48;12.68;;;9.50;99.90;;;;;;5113509;27;21136;-62
2022/04/14 06:36:36;;;;;;;12.23;11.02;;;9.70;99.90;;;;;;5085678;27;20563;-62
2022/04/14 06:39:16;;;;;;;13.75;12.52;;;10.10;99.90;;;;;;5082207;28;20568;-63
2022/04/14 06:41:56;;;;;;;13.77;11.73;;;10.50;99.90;;;;;;5082222;28;20579;-63
2022/04/14 06:44:36;;;;;;;11.02;10.07;;;10.90;99.90;;;;;;5083229;27;20971;-62
2022/04/14 06:47:15;;;;;;;12.55;11.35;;;11.20;99.90;;;;;;5115443;27;20542;-63
2022/04/14 06:49:56;;;;;;;11.48;9.20;;;11.50;99.90;;;;;;5082271;28;20671;-62
2022/04/14 06:52:35;;;;;;;10.80;9.25;;;11.60;99.90;;;;;;5135435;27;20669;-62
2022/04/14 06:55:15;;;;;;;9.50;8.80;;;11.80;99.90;;;;;;5122900;27;20703;-61
2022/04/14 06:57:56;;;;;;;10.55;9.65;;;11.90;99.90;;;;;;5085237;28;21032;-61
2022/04/14 07:00:36;;;;;;;9.55;8.65;;;12.00;99.90;;;;;;5082316;27;20570;-61
2022/04/14 07:03:16;;;;;;;8.65;7.95;;;12.10;99.90;;;;;;5082819;28;20564;-60
2022/04/14 07:05:56;;;;;;;9.65;8.25;;;12.20;99.90;;;;;;5064592;27;20579;-58
2022/04/14 07:08:38;;;;;;;11.45;7.82;;;12.20;99.90;;;;;;5101039;27;20546;-60
2022/04/14 07:11:17;;;;;;;8.95;8.05;;;12.20;99.90;;;;;;5082746;27;20564;-59
2022/04/14 07:13:58;;;;;;;8.25;7.45;;;12.30;99.90;;;;;;5081036;27;20569;-59
2022/04/14 07:16:38;;;;;;;7.57;6.70;;;12.40;99.90;;;;;;5083999;27;20573;-59
2022/04/14 07:19:18;;;;;;;7.30;6.82;;;12.40;99.90;;;;;;5103538;27;20576;-60
2022/04/14 07:21:58;;;;;;;6.38;5.85;;;12.50;99.90;;;;;;5084457;27;20572;-60
2022/04/14 07:24:38;;;;;;;6.38;5.78;;;12.60;99.90;;;;;;5083713;27;21051;-60
2022/04/14 07:27:20;;;;;;;8.18;7.40;;;12.70;99.90;;;;;;5083698;27;20550;-60
2022/04/14 07:29:59;;;;;;;5.80;5.30;;;12.90;99.90;;;;;;5083288;28;20564;-60
2022/04/14 07:32:40;;;;;;;6.85;6.25;;;13.00;99.90;;;;;;5082936;27;20624;-59
2022/04/14 07:35:22;;;;;;;6.60;5.47;;;13.30;99.90;;;;;;5099589;27;20593;-59
2022/04/14 07:38:02;;;;;;;6.07;5.47;;;13.40;99.90;;;;;;5103131;27;20982;-60
2022/04/14 07:40:42;;;;;;;8.65;5.68;;;13.70;99.90;;;;;;5083391;27;20564;-60
2022/04/14 07:43:21;;;;;;;5.30;4.90;;;13.90;99.90;;;;;;5084151;27;20564;-60
2022/04/14 07:46:03;;;;;;;5.47;5.10;;;14.10;99.90;;;;;;5083464;27;20584;-60
2022/04/14 07:48:43;;;;;;;5.38;4.97;;;14.40;99.90;;;;;;5103939;27;20574;-60
2022/04/14 07:51:23;;;;;;;4.95;4.55;;;14.60;99.90;;;;;;5103899;27;20573;-60
2022/04/14 07:54:02;;;;;;;6.47;4.78;;;14.90;99.90;;;;;;5083762;27;20576;-60
2022/04/14 07:56:45;;;;;;;5.55;5.05;;;15.10;99.90;;;;;;5104460;27;20542;-60
2022/04/14 07:59:24;;;;;;;4.90;4.50;;;15.50;99.90;;;;;;5082799;27;20573;-60
2022/04/14 08:02:04;;;;;;;5.80;5.30;;;15.90;99.90;;;;;;5084552;28;20679;-60
2022/04/14 08:04:43;;;;;;;5.18;4.78;;;16.10;99.90;;;;;;5083709;27;20587;-60
2022/04/14 08:07:23;;;;;;;5.63;5.13;;;16.00;99.90;;;;;;5104182;27;21041;-60
2022/04/14 08:10:03;;;;;;;4.90;4.30;;;16.00;99.90;;;;;;5083070;28;20675;-60
2022/04/14 08:12:43;;;;;;;5.20;4.80;;;16.10;99.90;;;;;;5084721;27;20549;-60
2022/04/14 08:15:23;;;;;;;5.90;5.25;;;16.20;99.90;;;;;;5145314;27;20570;-60
2022/04/14 08:18:03;;;;;;;5.32;4.82;;;16.40;99.90;;;;;;5104477;27;20566;-60
2022/04/14 08:20:42;;;;;;;5.82;5.32;;;16.70;99.90;;;;;;5124318;27;20540;-60
2022/04/14 08:23:23;;;;;;;6.18;4.95;;;16.90;99.90;;;;;;5084004;27;20574;-60
2022/04/14 08:26:04;;;;;;;6.43;4.18;;;17.10;99.90;;;;;;5083987;28;20587;-60
2022/04/14 08:28:43;;;;;;;5.63;4.65;;;17.20;93.30;;;;;;5070165;27;20571;-60
2022/04/14 08:31:24;;;;;;;5.55;4.65;;;17.60;97.00;;;;;;5083550;27;20576;-60
2022/04/14 08:34:05;;;;;;;6.43;4.68;;;17.90;88.10;;;;;;5084211;27;20581;-60
2022/04/14 08:36:45;;;;;;;5.28;4.68;;;18.10;87.30;;;;;;5084861;27;20569;-61
2022/04/14 08:39:25;;;;;;;4.50;4.15;;;18.50;84.30;;;;;;5103826;27;21063;-60
2022/04/14 08:42:13;;;;;;;6.45;4.95;;;18.60;82.30;;;;;;5146254;27;20542;-61
2022/04/14 08:45:01;;;;;;;5.15;4.75;;;18.80;79.20;;;;;;5083237;27;20601;-60
2022/04/14 08:47:41;;;;;;;4.90;4.53;;;19.00;75.20;;;;;;5084730;27;20569;-60
2022/04/14 08:50:21;;;;;;;5.03;4.43;;;19.00;73.40;;;;;;5083917;28;21448;-60
2022/04/14 08:53:05;;;;;;;4.85;4.45;;;19.00;69.80;;;;;;5084542;27;20547;-60
2022/04/14 08:55:44;;;;;;;4.93;3.80;;;19.10;67.40;;;;;;5133643;27;20693;-60
2022/04/14 08:58:26;;;;;;;4.93;4.00;;;19.40;63.60;;;;;;5084230;28;20560;-61
2022/04/14 09:01:06;;;;;;;4.95;4.55;;;19.40;64.50;;;;;;5083111;27;20577;-61
2022/04/14 09:03:45;;;;;;;4.97;4.57;;;19.40;66.50;;;;;;5069133;28;20544;-60
2022/04/14 09:06:29;;;;;;;4.30;3.88;;;19.40;66.70;;;;;;5084441;28;20561;-60
2022/04/14 09:09:08;;;;;;;6.43;5.05;;;19.50;64.40;;;;;;5133917;27;20666;-60
2022/04/14 09:11:48;;;;;;;5.35;4.45;;;19.50;69.80;;;;;;5104522;27;20576;-60
2022/04/14 09:14:28;;;;;;;5.30;4.90;;;19.60;69.70;;;;;;5098297;27;20555;-60
2022/04/14 09:17:09;;;;;;;5.20;4.80;;;19.70;69.30;;;;;;5084611;27;20570;-60
2022/04/14 09:19:49;;;;;;;5.80;5.25;;;19.60;66.10;;;;;;5141819;27;20564;-60
2022/04/14 09:22:29;;;;;;;7.95;5.28;;;19.50;69.10;;;;;;5076099;28;20566;-60
2022/04/14 09:25:09;;;;;;;4.90;4.50;;;19.40;68.60;;;;;;5083644;27;20603;-60
2022/04/14 09:27:48;;;;;;;8.60;4.85;;;19.30;69.40;;;;;;5082280;28;21060;-60
2022/04/14 09:30:28;;;;;;;4.65;4.25;;;19.20;69.50;;;;;;5082000;27;20558;-60
2022/04/14 09:33:16;;;;;;;4.72;3.95;;;18.80;72.10;;;;;;5102438;27;20568;-59
2022/04/14 09:36:14;;;;;;;4.68;4.28;;;18.60;71.70;;;;;;5104719;27;20685;-60
2022/04/14 09:38:56;;;;;;;3.65;3.45;;;18.70;75.20;;;;;;5076027;27;20561;-60
2022/04/14 09:41:38;;;;;;;5.00;4.60;;;18.90;72.00;;;;;;5123988;27;20540;-60
2022/04/14 09:44:18;;;;;;;5.00;4.50;;;19.40;70.60;;;;;;5077800;27;20677;-60
2022/04/14 09:46:57;;;;;;;4.85;4.43;;;19.40;62.10;;;;;;5084266;28;20672;-61
2022/04/14 09:49:41;;;;;;;5.90;4.55;;;19.30;59.20;;;;;;5083353;27;20565;-60
2022/04/14 09:52:21;;;;;;;5.32;3.90;;;19.30;59.40;;;;;;5097711;27;20565;-60
2022/04/14 09:55:10;;;;;;;5.05;4.60;;;19.10;60.70;;;;;;5071716;27;20590;-60
2022/04/14 09:58:09;;;;;;;4.68;4.28;;;19.10;60.80;;;;;;5094871;27;20567;-60
2022/04/14 10:00:51;;;;;;;7.30;5.60;;;19.30;59.80;;;;;;5082478;28;20893;-60
2022/04/14 10:03:32;;;;;;;5.82;5.28;;;19.60;62.30;;;;;;5095298;27;20583;-60
2022/04/14 10:06:11;;;;;;;5.30;4.90;;;19.90;61.80;;;;;;5082962;28;21177;-60
2022/04/14 10:08:52;;;;;;;7.50;4.80;;;20.30;59.70;;;;;;5132935;27;20561;-61
2022/04/14 10:11:34;;;;;;;6.85;5.60;;;20.80;57.70;;;;;;5084029;28;20835;-61
2022/04/14 10:14:26;;;;;;;5.55;5.15;;;21.10;55.50;;;;;;5096458;27;20612;-61
2022/04/14 10:17:06;;;;;;;6.30;5.43;;;21.20;55.40;;;;;;5081409;27;20617;-61
2022/04/14 10:19:46;;;;;;;5.60;5.20;;;21.40;55.10;;;;;;5079549;27;20582;-61
2022/04/14 10:22:26;;;;;;;6.38;5.63;;;21.40;56.10;;;;;;5134082;27;21063;-61
2022/04/14 10:25:07;;;;;;;6.40;5.80;;;21.30;56.30;;;;;;5092997;27;20580;-60
2022/04/14 10:27:49;;;;;;;6.88;5.65;;;21.00;57.70;;;;;;5080446;28;20675;-60
2022/04/14 10:30:29;;;;;;;7.43;5.63;;;21.00;60.80;;;;;;5102893;27;20579;-61
2022/04/14 10:33:12;;;;;;;5.97;5.38;;;21.20;57.90;;;;;;5127807;27;20552;-60
2022/04/14 10:35:52;;;;;;;5.80;5.40;;;21.20;55.00;;;;;;5074123;27;20930;-61
2022/04/14 10:38:35;;;;;;;6.20;5.70;;;21.00;54.90;;;;;;5107778;27;20556;-60
2022/04/14 10:41:20;;;;;;;5.75;5.25;;;20.70;55.00;;;;;;5082357;27;20565;-60
2022/04/14 10:44:02;;;;;;;7.70;5.28;;;20.80;57.20;;;;;;5073941;27;20564;-61
2022/04/14 10:46:47;;;;;;;4.47;4.10;;;21.10;57.00;;;;;;5103882;27;20553;-60
2022/04/14 10:49:32;;;;;;;4.78;4.38;;;21.40;54.00;;;;;;5083281;28;21026;-60
2022/04/14 10:52:26;;;;;;;5.15;4.70;;;21.50;54.70;;;;;;5087213;27;20991;-60
2022/04/14 10:55:06;;;;;;;4.65;4.13;;;21.30;54.40;;;;;;5072321;27;20575;-60
2022/04/14 10:57:50;;;;;;;5.90;5.30;;;21.30;53.70;;;;;;5084369;28;20672;-61
2022/04/14 11:00:37;;;;;;;7.93;4.50;;;21.40;53.00;;;;;;5083691;27;20569;-61
2022/04/14 11:03:19;;;;;;;7.22;5.03;;;21.50;52.10;;;;;;5143565;27;20562;-61
2022/04/14 11:05:59;;;;;;;6.40;4.97;;;21.60;53.60;;;;;;5085450;27;20955;-60
2022/04/14 11:08:47;;;;;;;5.70;5.18;;;21.50;56.20;;;;;;5145693;27;20542;-60
2022/04/14 11:11:26;;;;;;;6.40;5.70;;;21.20;52.70;;;;;;5103742;27;20550;-60
2022/04/14 11:14:09;;;;;;;6.93;5.35;;;20.80;51.50;;;;;;5080813;28;20678;-60
2022/04/14 11:16:49;;;;;;;9.73;5.75;;;20.50;51.10;;;;;;5084725;27;20573;-60
2022/04/14 11:19:29;;;;;;;6.07;5.03;;;20.40;51.50;;;;;;5116125;27;20532;-60
2022/04/14 11:22:09;;;;;;;5.78;4.50;;;20.30;52.00;;;;;;5104644;27;20549;-59
2022/04/14 11:24:49;;;;;;;5.50;5.00;;;20.20;53.10;;;;;;5125370;27;21072;-60
2022/04/14 11:27:30;;;;;;;7.97;5.68;;;20.30;54.30;;;;;;5101399;27;21117;-60
2022/04/14 11:30:39;;;;;;;9.48;5.20;;;20.20;51.30;;;;;;5108807;27;20573;-60
2022/04/14 11:33:27;;;;;;;5.72;5.13;;;20.10;55.80;;;;;;5097265;27;20588;-60
2022/04/14 11:36:14;;;;;;;5.50;5.00;;;20.30;54.10;;;;;;5103643;27;20554;-60
2022/04/14 11:39:00;;;;;;;4.88;4.13;;;20.40;53.70;;;;;;5083912;28;21311;-60
2022/04/14 11:41:41;;;;;;;6.72;5.53;;;20.50;52.70;;;;;;5085039;28;21080;-60
2022/04/14 11:44:21;;;;;;;7.80;5.85;;;20.80;51.70;;;;;;5146203;27;20558;-60
2022/04/14 11:47:02;;;;;;;5.57;5.18;;;21.00;52.60;;;;;;5146412;27;20961;-60
2022/04/14 11:49:42;;;;;;;5.72;5.13;;;21.20;52.00;;;;;;5083752;27;20539;-60
2022/04/14 11:52:23;;;;;;;5.70;5.07;;;21.40;50.70;;;;;;5084676;28;20550;-61
2022/04/14 11:55:03;;;;;;;5.72;5.05;;;21.50;49.10;;;;;;5073021;27;21089;-60
2022/04/14 11:57:48;;;;;;;5.57;4.70;;;21.80;49.90;;;;;;5084564;28;20672;-61
2022/04/14 12:00:28;;;;;;;5.65;4.90;;;22.00;50.40;;;;;;5084096;28;20564;-61
2022/04/14 12:03:08;;;;;;;6.40;5.32;;;22.20;49.30;;;;;;5084819;27;20581;-60
2022/04/14 12:05:51;;;;;;;5.93;5.43;;;22.30;49.60;;;;;;5102868;27;20561;-60
2022/04/14 12:08:32;;;;;;;7.05;6.45;;;22.40;49.10;;;;;;5104706;27;20592;-61
2022/04/14 12:11:17;;;;;;;6.03;5.53;;;22.20;49.10;;;;;;5149223;27;20562;-60
2022/04/14 12:13:56;;;;;;;8.40;5.97;;;22.10;51.40;;;;;;5082583;28;20547;-61
2022/04/14 12:16:36;;;;;;;7.78;7.00;;;22.20;49.40;;;;;;5104963;27;21039;-61
2022/04/14 12:19:16;;;;;;;7.55;6.85;;;22.20;49.80;;;;;;5083493;27;21140;-60
2022/04/14 12:22:04;;;;;;;7.70;5.75;;;22.00;48.00;;;;;;5084293;27;20569;-60
2022/04/14 12:24:49;;;;;;;6.78;6.07;;;22.00;48.30;;;;;;5084133;28;20680;-61
2022/04/14 12:27:34;;;;;;;6.60;6.00;;;22.30;48.60;;;;;;5125217;27;20548;-61
2022/04/14 12:30:15;;;;;;;6.28;5.70;;;22.60;47.00;;;;;;5083542;28;20671;-61
2022/04/14 12:33:02;;;;;;;8.30;6.25;;;22.70;47.10;;;;;;5084615;27;20560;-61
2022/04/14 12:35:44;;;;;;;9.82;5.75;;;22.50;47.50;;;;;;5125136;27;20544;-60
2022/04/14 12:38:25;;;;;;;7.32;5.72;;;22.40;48.00;;;;;;5079021;27;20612;-61
2022/04/14 12:41:07;;;;;;;5.05;4.65;;;22.50;48.40;;;;;;5102236;27;20546;-60
2022/04/14 12:43:49;;;;;;;6.68;5.65;;;22.70;47.80;;;;;;5083961;27;20572;-59
2022/04/14 12:46:30;;;;;;;6.90;6.35;;;23.00;46.50;;;;;;5084536;28;21200;-61
2022/04/14 12:49:11;;;;;;;6.72;6.03;;;23.20;45.70;;;;;;5103742;27;20661;-61
2022/04/14 12:51:55;;;;;;;9.57;5.38;;;23.50;45.50;;;;;;5104689;27;21082;-61
2022/04/14 12:54:46;;;;;;;6.38;5.88;;;23.50;45.60;;;;;;5077002;28;20602;-61
2022/04/14 12:57:30;;;;;;;6.97;6.25;;;23.80;45.60;;;;;;5077201;27;20620;-61
2022/04/14 13:00:14;;;;;;;6.05;5.45;;;24.20;45.10;;;;;;5082251;27;20568;-61
2022/04/14 13:03:13;;;;;;;8.75;6.65;;;24.40;42.90;;;;;;5083372;27;20548;-61
2022/04/14 13:05:53;;;;;;;6.05;5.55;;;24.10;43.50;;;;;;5102291;27;20554;-61
2022/04/14 13:08:33;;;;;;;6.88;6.32;;;23.90;44.00;;;;;;5084469;27;20562;-61
2022/04/14 13:11:42;;;;;;;7.28;5.60;;;24.00;44.20;;;;;;5145138;27;20673;-61
2022/04/14 13:14:23;;;;;;;5.72;5.22;;;24.10;43.80;;;;;;5098665;27;20589;-61
2022/04/14 13:17:03;;;;;;;8.10;6.38;;;23.80;43.50;;;;;;5078482;27;20563;-61
2022/04/14 13:19:42;;;;;;;6.93;5.88;;;23.80;43.70;;;;;;5081612;28;20675;-61
2022/04/14 13:22:22;;;;;;;6.13;5.10;;;23.70;44.30;;;;;;5144240;27;20554;-61
2022/04/14 13:25:02;;;;;;;6.00;5.38;;;23.60;44.40;;;;;;5073129;28;20567;-61
2022/04/14 13:27:42;;;;;;;5.78;5.28;;;23.70;44.70;;;;;;5084275;28;20592;-61
2022/04/14 13:30:22;;;;;;;7.60;6.40;;;24.00;45.30;;;;;;5097840;27;20583;-61
2022/04/14 13:33:03;;;;;;;5.85;5.18;;;24.30;43.70;;;;;;5111692;27;20538;-60
2022/04/14 13:35:43;;;;;;;5.32;4.90;;;24.40;43.20;;;;;;5087469;27;20572;-61
2022/04/14 13:38:23;;;;;;;5.25;4.60;;;24.50;42.80;;;;;;5083894;28;21052;-60
2022/04/14 13:41:02;;;;;;;6.15;3.78;;;24.40;42.60;;;;;;5103431;27;20902;-61
2022/04/14 13:43:42;;;;;;;4.63;4.22;;;24.60;42.20;;;;;;5104789;27;20661;-61
2022/04/14 13:46:22;;;;;;;6.60;4.65;;;24.60;42.40;;;;;;5104534;27;20583;-61
2022/04/14 13:49:02;;;;;;;5.18;4.18;;;24.60;42.20;;;;;;5104066;27;20885;-59
2022/04/14 13:51:42;;;;;;;4.53;4.13;;;24.90;41.70;;;;;;5104693;27;20566;-61
2022/04/14 13:54:22;;;;;;;6.05;4.68;;;25.40;41.30;;;;;;5078858;28;20565;-61
2022/04/14 13:57:02;;;;;;;6.65;6.05;;;25.70;40.60;;;;;;5078807;27;21178;-61
2022/04/14 13:59:41;;;;;;;6.25;5.85;;;25.50;42.30;;;;;;5138522;22;20584;-59
2022/04/14 14:02:22;;;;;;;6.03;5.53;;;24.80;41.60;;;;;;5136244;27;20554;-59